TAF CYGP 221943Z 2220/2308 28020G30KT P6SM SCT070
TEMPO 2220/2224 BKN070
BECMG 2222/2224 28010G20KT
FM230300 28008KT P6SM FEW050 RMK NXT FCST BY 230200Z
From batch tds/tafs/production/2024/4/22/h20_m00_tafs.cache.xml.gz
Issued (30 days ago)
Forecasts
2220/2222 28020G30KT 6+SM SCT7000

---
fcst_time_to: '2024-04-22T22:00:00Z'
wind_gust_kt: '30'
sky_condition:
- sky_cover: SCT
  cloud_base_ft_agl: '7000'
wind_speed_kt: '20'
fcst_time_from: '2024-04-22T20:00:00Z'
wind_dir_degrees: '280'
visibility_statute_mi: 6+

TEMPO 2220/2300 BKN7000

---
fcst_time_to: '2024-04-23T00:00:00Z'
sky_condition:
- sky_cover: BKN
  cloud_base_ft_agl: '7000'
fcst_time_from: '2024-04-22T20:00:00Z'
change_indicator: TEMPO

BECMG 2300/2303 28010G20KT 6+SM SCT7000

---
fcst_time_to: '2024-04-23T03:00:00Z'
wind_gust_kt: '20'
sky_condition:
- sky_cover: SCT
  cloud_base_ft_agl: '7000'
time_becoming: '2024-04-23T00:00:00Z'
wind_speed_kt: '10'
fcst_time_from: '2024-04-22T22:00:00Z'
change_indicator: BECMG
wind_dir_degrees: '280'
visibility_statute_mi: 6+

FM230300 28008KT 6+SM FEW5000

---
fcst_time_to: '2024-04-23T08:00:00Z'
sky_condition:
- sky_cover: FEW
  cloud_base_ft_agl: '5000'
wind_speed_kt: '8'
fcst_time_from: '2024-04-23T03:00:00Z'
change_indicator: FM
wind_dir_degrees: '280'
visibility_statute_mi: 6+

talk